Sitka Rocky Gutierrez Airport

Date: 2024-06-11 03:53:00Z

Type: METAR

Weather: Light Rain

Winds: 240° at 9 kts

Visibility: 5

Ceiling (AGL FT): Clouds BROKEN at 600, BROKEN at 1000, OVERCAST at 1500, BROKEN at 18000

RAW METAR: PASI 110353Z 24009KT 5SM -RA BR BKN006 BKN010 OVC015 10/08 A2982 RMK AO2 RAB03E29B53 CIG 004V008 SLP097 P0000 T01000083

project-image